Time;durP1;ratioP1;P1;durP2;ratioP2;P2;SDS_P1;SDS_P2;PMS_P1;PMS_P2;Temp;Humidity;BMP_temperature;BMP_pressure;BME280_temperature;BME280_humidity;BME280_pressure;Samples;Min_cycle;Max_cycle;Signal;HPM_P1;HPM_P2
2021/06/05 00:00:59;;;;;;;14.60;12.35;;;19.60;99.90;;;;;;5109857;28;20506;-46
2021/06/05 00:03:25;;;;;;;12.75;11.50;;;19.50;99.90;;;;;;5110039;28;20028;-44
2021/06/05 00:05:58;;;;;;;14.75;11.95;;;19.50;99.90;;;;;;5109468;28;20031;-45
2021/06/05 00:08:27;;;;;;;16.35;12.32;;;19.50;99.90;;;;;;5109413;28;20026;-45
2021/06/05 00:10:57;;;;;;;15.00;12.50;;;19.50;99.90;;;;;;5109546;28;20038;-47
2021/06/05 00:13:26;;;;;;;13.25;11.52;;;19.50;99.90;;;;;;5109663;28;20054;-45
2021/06/05 00:15:52;;;;;;;14.63;12.97;;;19.40;99.90;;;;;;5109707;28;20024;-46
2021/06/05 00:18:18;;;;;;;15.02;13.48;;;19.40;99.90;;;;;;5090218;28;20160;-47
2021/06/05 00:20:44;;;;;;;18.67;12.90;;;19.40;99.90;;;;;;5091249;28;20115;-44
2021/06/05 00:23:16;;;;;;;13.93;12.32;;;19.40;99.90;;;;;;5110052;28;20110;-44
2021/06/05 00:25:43;;;;;;;13.23;11.93;;;19.40;99.90;;;;;;5109846;28;20430;-45
2021/06/05 00:28:09;;;;;;;16.25;11.93;;;19.30;99.90;;;;;;5108117;28;20039;-46
2021/06/05 00:30:35;;;;;;;13.60;12.20;;;19.20;99.90;;;;;;5109652;28;20053;-45
2021/06/05 00:33:01;;;;;;;13.55;12.15;;;19.20;99.90;;;;;;5091146;28;20104;-45
2021/06/05 00:35:28;;;;;;;14.15;12.65;;;19.20;99.90;;;;;;5109669;28;20039;-46
2021/06/05 00:37:54;;;;;;;14.82;12.23;;;19.20;99.90;;;;;;5108636;28;20385;-45
2021/06/05 00:40:23;;;;;;;15.55;13.93;;;19.20;99.90;;;;;;5109350;28;20037;-46
2021/06/05 00:42:48;;;;;;;15.73;13.60;;;19.20;99.90;;;;;;5109094;28;20417;-46
2021/06/05 00:45:17;;;;;;;14.88;12.90;;;19.20;99.90;;;;;;5109257;28;20070;-47
2021/06/05 00:47:44;;;;;;;19.75;12.82;;;19.10;99.90;;;;;;5108282;28;20077;-46
2021/06/05 00:50:12;;;;;;;13.48;12.05;;;19.00;99.90;;;;;;5109176;28;20162;-47
2021/06/05 00:52:39;;;;;;;14.50;13.02;;;19.00;99.90;;;;;;5090218;28;20462;-49
2021/06/05 00:55:06;;;;;;;13.73;12.43;;;19.00;99.90;;;;;;5108788;28;20036;-46
2021/06/05 00:57:32;;;;;;;13.02;11.73;;;18.90;99.90;;;;;;5107900;28;20030;-45
2021/06/05 00:59:57;;;;;;;13.18;11.77;;;18.90;99.90;;;;;;5108676;28;20031;-47
2021/06/05 01:02:24;;;;;;;14.23;12.80;;;18.90;99.90;;;;;;5109371;28;20181;-46
2021/06/05 01:04:49;;;;;;;14.52;13.02;;;18.80;99.90;;;;;;5090527;28;20039;-45
2021/06/05 01:07:32;;;;;;;14.30;12.90;;;18.80;99.90;;;;;;5108249;28;20035;-47
2021/06/05 01:10:05;;;;;;;14.93;13.32;;;18.80;99.90;;;;;;5089962;28;20024;-46
2021/06/05 01:12:53;;;;;;;14.82;13.30;;;18.70;99.90;;;;;;5107909;28;20092;-45
2021/06/05 01:15:31;;;;;;;15.13;13.63;;;18.70;99.90;;;;;;5108643;28;20020;-46
2021/06/05 01:18:10;;;;;;;16.23;14.55;;;18.70;99.90;;;;;;5107927;28;20450;-47
2021/06/05 01:20:51;;;;;;;16.73;14.68;;;18.60;99.90;;;;;;5108995;28;20493;-46
2021/06/05 01:23:48;;;;;;;15.98;14.02;;;18.70;99.90;;;;;;5108942;28;20080;-46
2021/06/05 01:26:21;;;;;;;17.80;15.90;;;18.70;99.90;;;;;;5108468;28;20092;-45
2021/06/05 01:28:58;;;;;;;18.63;15.30;;;18.60;99.90;;;;;;5107471;28;20050;-44
2021/06/05 01:31:27;;;;;;;15.23;13.63;;;18.60;99.90;;;;;;5108546;28;20095;-45
2021/06/05 01:33:55;;;;;;;15.13;13.65;;;18.50;99.90;;;;;;5108493;28;20485;-44
2021/06/05 01:36:22;;;;;;;18.17;14.43;;;18.50;99.90;;;;;;5108313;28;20103;-45
2021/06/05 01:38:54;;;;;;;15.95;14.25;;;18.50;99.90;;;;;;5104607;28;20027;-45
2021/06/05 01:41:22;;;;;;;15.23;13.63;;;18.50;99.90;;;;;;5097764;28;20043;-46
2021/06/05 01:43:49;;;;;;;15.75;14.18;;;18.40;99.90;;;;;;5095608;28;20028;-47
2021/06/05 01:46:17;;;;;;;18.05;15.23;;;18.40;99.90;;;;;;5095209;28;20089;-47
2021/06/05 01:48:43;;;;;;;16.17;14.48;;;18.30;99.90;;;;;;5095938;28;20070;-46
2021/06/05 01:51:15;;;;;;;15.88;14.23;;;18.30;99.90;;;;;;5095117;28;20056;-44
2021/06/05 01:53:48;;;;;;;15.68;14.07;;;18.20;99.90;;;;;;5096434;28;20462;-45
2021/06/05 01:56:29;;;;;;;15.63;13.90;;;18.20;99.90;;;;;;5096050;28;20385;-45
2021/06/05 01:58:57;;;;;;;18.17;15.00;;;18.20;99.90;;;;;;5093611;28;20408;-45
2021/06/05 02:01:23;;;;;;;18.13;16.23;;;18.10;99.90;;;;;;5095961;28;20036;-46
2021/06/05 02:03:50;;;;;;;20.15;16.42;;;18.10;99.90;;;;;;5094804;28;20474;-45
2021/06/05 02:06:17;;;;;;;17.70;15.70;;;18.00;99.90;;;;;;5096074;28;20554;-46
2021/06/05 02:08:42;;;;;;;17.45;15.55;;;18.00;99.90;;;;;;5097213;28;20042;-45
2021/06/05 02:11:13;;;;;;;18.55;16.60;;;18.00;99.90;;;;;;5094960;28;20377;-48
2021/06/05 02:13:41;;;;;;;;;;;18.00;99.90;;;;;;5096000;28;20195;-46
2021/06/05 02:16:20;;;;;;;19.20;17.13;;;17.90;99.90;;;;;;5096447;28;20373;-46
2021/06/05 02:18:53;;;;;;;18.20;16.30;;;17.90;99.90;;;;;;5097682;28;20032;-43
2021/06/05 02:21:22;;;;;;;23.27;17.98;;;17.90;99.90;;;;;;5095971;28;20028;-45
2021/06/05 02:23:50;;;;;;;22.00;17.25;;;17.80;99.90;;;;;;5096793;28;20020;-47
2021/06/05 02:26:18;;;;;;;18.98;16.60;;;17.80;99.90;;;;;;5096116;28;20035;-45
2021/06/05 02:28:47;;;;;;;20.23;17.67;;;17.80;99.90;;;;;;5094417;28;20023;-45
2021/06/05 02:31:13;;;;;;;19.55;17.45;;;17.70;99.90;;;;;;5096100;28;20433;-45
2021/06/05 02:33:40;;;;;;;18.27;15.95;;;17.80;99.90;;;;;;5096667;28;20058;-46
2021/06/05 02:36:11;;;;;;;20.83;18.63;;;17.70;99.90;;;;;;5098070;28;20038;-44
2021/06/05 02:38:37;;;;;;;;;;;17.70;99.90;;;;;;5096855;28;20012;-47
2021/06/05 02:41:04;;;;;;;20.00;16.83;;;17.70;99.90;;;;;;5095108;28;19915;-45
2021/06/05 02:43:31;;;;;;;20.70;16.42;;;17.70;99.90;;;;;;5101637;28;20466;-47
2021/06/05 02:46:09;;;;;;;19.48;17.48;;;17.60;99.90;;;;;;5107483;28;20034;-45
2021/06/05 02:48:41;;;;;;;20.35;17.77;;;17.60;99.90;;;;;;5107369;28;20023;-45
2021/06/05 02:51:06;;;;;;;19.98;17.88;;;17.60;99.90;;;;;;5107916;28;20494;-46
2021/06/05 02:53:32;;;;;;;18.13;16.33;;;17.60;99.90;;;;;;5107244;28;20023;-46
2021/06/05 02:55:57;;;;;;;20.90;18.70;;;17.50;99.90;;;;;;5107279;28;20055;-45
2021/06/05 02:58:23;;;;;;;23.48;18.20;;;17.50;99.90;;;;;;5091217;28;20161;-45
2021/06/05 03:00:49;;;;;;;20.13;17.65;;;17.50;99.90;;;;;;5086779;28;20031;-44
2021/06/05 03:03:17;;;;;;;19.30;17.20;;;17.50;99.90;;;;;;5086727;28;20435;-45
2021/06/05 03:05:43;;;;;;;18.98;17.08;;;17.50;99.90;;;;;;5085990;28;20024;-45
2021/06/05 03:08:15;;;;;;;21.55;19.25;;;17.40;99.90;;;;;;5086306;28;20032;-46
2021/06/05 03:10:40;;;;;;;20.23;18.02;;;17.40;99.90;;;;;;5086830;28;20095;-45
2021/06/05 03:13:09;;;;;;;19.98;17.88;;;17.40;99.90;;;;;;5086264;28;20108;-45
2021/06/05 03:15:35;;;;;;;20.02;17.92;;;17.40;99.90;;;;;;5085540;28;20035;-45
2021/06/05 03:18:02;;;;;;;21.52;19.25;;;17.40;99.90;;;;;;5089108;28;20389;-46
2021/06/05 03:20:33;;;;;;;24.15;19.13;;;17.40;99.90;;;;;;5090742;28;20120;-44
2021/06/05 03:22:59;;;;;;;23.20;18.75;;;17.40;99.90;;;;;;5090737;28;20181;-46
2021/06/05 03:25:25;;;;;;;24.13;19.00;;;17.40;99.90;;;;;;5090330;28;20525;-48
2021/06/05 03:27:51;;;;;;;22.15;19.55;;;17.40;99.90;;;;;;5087895;28;20630;-46
2021/06/05 03:30:18;;;;;;;22.17;18.15;;;17.30;99.90;;;;;;5090407;28;20050;-44
2021/06/05 03:32:44;;;;;;;23.52;19.65;;;17.30;99.90;;;;;;5090422;28;20127;-45
2021/06/05 03:35:11;;;;;;;23.25;19.38;;;17.30;99.90;;;;;;5090471;28;20386;-46
2021/06/05 03:37:38;;;;;;;20.98;18.77;;;17.30;99.90;;;;;;5089534;28;20020;-45
2021/06/05 03:40:06;;;;;;;21.73;18.60;;;17.30;99.90;;;;;;5090122;28;20055;-47
2021/06/05 03:42:32;;;;;;;25.77;18.45;;;17.30;99.90;;;;;;5089687;28;20036;-46
2021/06/05 03:44:57;;;;;;;22.77;20.25;;;17.30;99.90;;;;;;5089986;28;20028;-45
2021/06/05 03:47:24;;;;;;;22.92;18.95;;;17.30;99.90;;;;;;5088779;28;20044;-46
2021/06/05 03:49:52;;;;;;;24.63;20.25;;;17.30;99.90;;;;;;5091081;28;20218;-46
2021/06/05 03:52:22;;;;;;;22.33;20.08;;;17.20;99.90;;;;;;5096637;28;20119;-46
2021/06/05 03:54:51;;;;;;;22.88;20.52;;;17.20;99.90;;;;;;5098244;28;20266;-45
2021/06/05 03:57:18;;;;;;;21.08;17.80;;;17.20;99.90;;;;;;5094278;28;20155;-45
2021/06/05 03:59:43;;;;;;;30.33;20.92;;;17.20;99.90;;;;;;5099052;28;20047;-46
2021/06/05 04:02:09;;;;;;;21.25;18.92;;;17.20;99.90;;;;;;5098358;28;20516;-45
2021/06/05 04:04:34;;;;;;;20.48;18.38;;;17.20;99.90;;;;;;5100576;28;20459;-44
2021/06/05 04:07:00;;;;;;;23.80;19.20;;;17.20;99.90;;;;;;5099696;28;20377;-45
2021/06/05 04:09:25;;;;;;;22.48;19.88;;;17.30;99.90;;;;;;5098334;28;20537;-46
2021/06/05 04:11:50;;;;;;;29.25;20.60;;;17.30;99.90;;;;;;5098294;28;20023;-44
2021/06/05 04:14:16;;;;;;;21.83;19.52;;;17.30;99.90;;;;;;5099642;28;20080;-44
2021/06/05 04:16:42;;;;;;;24.33;20.33;;;17.30;99.90;;;;;;5099509;28;20132;-44
2021/06/05 04:19:07;;;;;;;21.35;19.08;;;17.40;99.90;;;;;;5095690;28;20549;-47
2021/06/05 04:21:33;;;;;;;23.85;21.25;;;17.30;99.90;;;;;;5104133;28;20027;-45
2021/06/05 04:23:58;;;;;;;21.55;19.35;;;17.40;99.90;;;;;;5103813;28;20370;-44
2021/06/05 04:26:25;;;;;;;21.63;19.30;;;17.40;99.90;;;;;;5096516;28;20035;-44
2021/06/05 04:28:51;;;;;;;22.95;20.50;;;17.40;99.90;;;;;;5096614;28;20082;-46
2021/06/05 04:31:16;;;;;;;27.77;20.15;;;17.50;99.90;;;;;;5095649;28;20024;-45
2021/06/05 04:33:42;;;;;;;22.85;19.05;;;17.40;99.90;;;;;;5099096;28;20046;-45
2021/06/05 04:36:13;;;;;;;22.40;19.45;;;17.50;99.90;;;;;;5096042;28;20020;-48
2021/06/05 04:39:05;;;;;;;;;;;17.60;99.90;;;;;;5089928;28;20103;-45
2021/06/05 04:41:30;;;;;;;23.20;18.77;;;17.70;99.90;;;;;;5097407;28;20357;-46
2021/06/05 04:43:56;;;;;;;20.73;18.63;;;17.70;99.90;;;;;;5098731;27;20039;-44
2021/06/05 04:46:22;;;;;;;23.50;20.15;;;17.80;99.90;;;;;;5096021;28;20115;-46
2021/06/05 04:48:48;;;;;;;20.70;18.52;;;17.90;99.90;;;;;;5095189;28;20020;-48
2021/06/05 04:51:17;;;;;;;23.00;20.45;;;17.90;99.90;;;;;;5097399;28;20359;-46
2021/06/05 04:53:42;;;;;;;25.85;19.27;;;17.90;99.90;;;;;;5096848;28;20032;-45
2021/06/05 04:56:09;;;;;;;22.83;19.65;;;18.00;99.90;;;;;;5096888;28;20028;-43
2021/06/05 04:58:34;;;;;;;20.95;18.63;;;18.10;99.90;;;;;;5100291;28;20026;-46
2021/06/05 05:01:00;;;;;;;22.20;19.35;;;18.10;99.90;;;;;;5098885;27;20020;-47
2021/06/05 05:03:28;;;;;;;21.58;19.30;;;18.10;99.90;;;;;;5099044;28;20094;-46
2021/06/05 05:06:02;;;;;;;20.38;18.13;;;18.20;99.90;;;;;;5107120;28;20032;-47
2021/06/05 05:08:28;;;;;;;21.13;18.98;;;18.30;99.90;;;;;;5110323;28;20039;-49
2021/06/05 05:10:54;;;;;;;21.65;19.30;;;18.30;99.90;;;;;;5108803;27;20019;-46
2021/06/05 05:13:26;;;;;;;24.10;19.30;;;18.40;99.90;;;;;;5108316;28;20594;-44
2021/06/05 05:15:53;;;;;;;20.25;18.15;;;18.40;99.90;;;;;;5110147;28;20099;-46
2021/06/05 05:18:19;;;;;;;24.38;19.50;;;18.40;99.90;;;;;;5110100;28;20107;-44
2021/06/05 05:20:45;;;;;;;27.25;18.88;;;18.50;99.90;;;;;;5109540;28;20015;-44
2021/06/05 05:23:12;;;;;;;22.48;18.05;;;18.50;99.90;;;;;;5109928;28;20369;-44
2021/06/05 05:25:41;;;;;;;21.67;18.65;;;18.60;99.90;;;;;;5108626;28;20028;-45
2021/06/05 05:28:06;;;;;;;23.77;18.63;;;18.70;99.90;;;;;;5116894;27;20026;-45
2021/06/05 05:30:37;;;;;;;21.30;19.02;;;18.70;99.90;;;;;;5102365;27;20031;-47
2021/06/05 05:33:03;;;;;;;22.70;18.23;;;18.80;99.90;;;;;;5098948;28;20036;-44
2021/06/05 05:35:29;;;;;;;19.38;17.30;;;18.90;99.90;;;;;;5103550;28;20067;-45
2021/06/05 05:37:55;;;;;;;22.35;18.52;;;18.90;99.90;;;;;;5109833;28;20027;-46
2021/06/05 05:40:22;;;;;;;23.83;18.45;;;19.10;99.90;;;;;;5097146;28;20029;-45
2021/06/05 05:42:48;;;;;;;20.42;17.98;;;19.30;99.90;;;;;;5099729;28;20027;-45
2021/06/05 05:45:15;;;;;;;19.63;17.45;;;19.40;99.90;;;;;;5098105;28;20073;-44
2021/06/05 05:47:41;;;;;;;20.58;17.65;;;19.60;99.90;;;;;;5097371;28;20080;-45
2021/06/05 05:50:09;;;;;;;18.98;17.05;;;19.60;99.90;;;;;;5098651;28;20492;-46
2021/06/05 05:52:35;;;;;;;25.23;17.60;;;19.80;99.90;;;;;;5098182;28;20093;-46
2021/06/05 05:55:01;;;;;;;20.50;17.80;;;20.00;99.90;;;;;;5098680;28;20465;-49
2021/06/05 05:57:27;;;;;;;20.45;18.40;;;19.90;99.90;;;;;;5102039;28;20583;-46
2021/06/05 05:59:52;;;;;;;23.23;18.10;;;20.00;99.90;;;;;;5112134;27;20030;-44
2021/06/05 06:02:18;;;;;;;26.38;17.58;;;20.10;99.90;;;;;;5129415;27;20027;-46
2021/06/05 06:04:43;;;;;;;20.42;17.55;;;20.10;99.90;;;;;;5128474;27;20055;-45
2021/06/05 06:07:09;;;;;;;19.98;16.55;;;20.20;99.90;;;;;;5129843;27;20038;-46
2021/06/05 06:09:34;;;;;;;21.00;18.60;;;20.10;99.90;;;;;;5129015;27;20118;-44
2021/06/05 06:12:00;;;;;;;20.88;17.70;;;20.10;99.90;;;;;;5129855;27;20644;-45
2021/06/05 06:14:25;;;;;;;20.92;18.38;;;20.10;99.90;;;;;;5129551;28;20428;-49
2021/06/05 06:16:51;;;;;;;20.50;17.73;;;20.20;99.90;;;;;;5130137;28;20027;-45
2021/06/05 06:19:16;;;;;;;18.63;16.75;;;20.20;99.90;;;;;;5128953;28;20365;-44
2021/06/05 06:21:43;;;;;;;23.42;18.15;;;20.30;99.90;;;;;;5129396;28;20019;-45
2021/06/05 06:24:10;;;;;;;24.27;18.27;;;20.40;99.90;;;;;;5129994;27;20035;-46
2021/06/05 06:26:36;;;;;;;20.13;16.98;;;20.60;99.90;;;;;;5129447;27;20523;-45
2021/06/05 06:29:13;;;;;;;19.25;17.15;;;20.70;99.90;;;;;;5106647;28;20032;-45
2021/06/05 06:31:40;;;;;;;21.13;16.90;;;20.70;99.90;;;;;;5098797;27;20072;-44
2021/06/05 06:34:05;;;;;;;17.52;15.73;;;20.70;99.90;;;;;;5098336;28;20022;-46
2021/06/05 06:36:31;;;;;;;19.25;17.15;;;20.70;99.90;;;;;;5096410;28;20020;-46
2021/06/05 06:38:57;;;;;;;17.80;15.93;;;20.80;99.90;;;;;;5096509;28;20102;-46
2021/06/05 06:41:27;;;;;;;16.42;14.82;;;20.70;99.90;;;;;;5090447;28;20489;-45
2021/06/05 06:43:55;;;;;;;19.95;17.17;;;20.70;99.90;;;;;;5051282;28;20062;-45
2021/06/05 06:46:23;;;;;;;18.92;16.50;;;20.70;99.90;;;;;;5029748;28;20192;-47
2021/06/05 06:48:51;;;;;;;19.55;17.55;;;20.70;99.90;;;;;;5085293;28;20480;-46
2021/06/05 06:51:16;;;;;;;17.98;15.73;;;20.70;99.90;;;;;;5093370;28;20040;-45
2021/06/05 06:53:43;;;;;;;21.00;16.95;;;20.80;99.90;;;;;;5098230;28;20522;-45
2021/06/05 06:56:08;;;;;;;20.50;15.43;;;20.70;99.90;;;;;;5099129;28;20016;-44
2021/06/05 06:58:35;;;;;;;20.05;17.75;;;20.70;99.90;;;;;;5108011;27;20028;-45
2021/06/05 07:01:01;;;;;;;18.55;16.27;;;20.80;99.90;;;;;;5100976;27;20031;-45
2021/06/05 07:03:26;;;;;;;20.33;16.95;;;20.90;99.90;;;;;;5097614;28;20205;-47
2021/06/05 07:05:52;;;;;;;20.15;17.13;;;21.10;99.90;;;;;;5096725;28;20055;-48
2021/06/05 07:08:21;;;;;;;18.88;16.80;;;21.30;99.90;;;;;;5097052;28;20059;-46
2021/06/05 07:10:49;;;;;;;20.67;16.67;;;21.40;99.90;;;;;;5098252;28;20028;-46
2021/06/05 07:13:16;;;;;;;20.83;16.67;;;21.60;99.90;;;;;;5096791;27;20180;-46
2021/06/05 07:15:42;;;;;;;18.73;16.75;;;21.70;99.90;;;;;;5098280;28;20080;-45
2021/06/05 07:18:09;;;;;;;21.30;16.90;;;21.80;99.90;;;;;;5097301;28;20047;-47
2021/06/05 07:20:35;;;;;;;19.17;17.10;;;21.90;99.90;;;;;;5096262;28;20031;-45
2021/06/05 07:23:01;;;;;;;18.67;16.58;;;22.20;99.90;;;;;;5098347;28;20031;-45
2021/06/05 07:25:27;;;;;;;17.75;15.88;;;22.40;99.90;;;;;;5099049;28;20456;-45
2021/06/05 07:27:54;;;;;;;19.60;16.13;;;22.50;99.90;;;;;;5102311;27;20024;-46
2021/06/05 07:30:21;;;;;;;20.80;17.20;;;22.70;99.90;;;;;;5103646;27;20448;-45
2021/06/05 07:32:46;;;;;;;19.30;16.13;;;22.70;99.90;;;;;;5096822;28;20390;-45
2021/06/05 07:35:12;;;;;;;19.45;16.63;;;22.80;99.90;;;;;;5095605;28;20085;-45
2021/06/05 07:37:37;;;;;;;16.15;14.52;;;23.10;99.90;;;;;;5097567;28;20019;-44
2021/06/05 07:40:07;;;;;;;16.23;14.60;;;23.30;99.90;;;;;;5095973;28;20515;-46
2021/06/05 07:42:34;;;;;;;16.88;15.18;;;23.50;99.90;;;;;;5095529;28;20206;-46
2021/06/05 07:45:00;;;;;;;16.13;14.50;;;23.70;99.90;;;;;;5096997;28;20115;-46
2021/06/05 07:47:26;;;;;;;15.82;14.15;;;23.90;99.90;;;;;;5096312;28;20122;-46
2021/06/05 07:49:52;;;;;;;18.48;15.50;;;24.20;99.90;;;;;;5095039;28;20024;-45
2021/06/05 07:52:23;;;;;;;17.38;14.38;;;24.60;99.90;;;;;;5096711;28;20047;-46
2021/06/05 07:54:53;;;;;;;15.65;14.05;;;24.70;99.90;;;;;;5098792;28;20027;-46
2021/06/05 07:57:20;;;;;;;19.65;15.40;;;24.80;99.90;;;;;;5099015;27;20103;-46
2021/06/05 07:59:46;;;;;;;16.23;13.50;;;24.80;99.90;;;;;;5108024;27;20567;-45
2021/06/05 08:02:12;;;;;;;16.85;15.05;;;24.70;99.90;;;;;;5097474;28;20107;-49
2021/06/05 08:04:37;;;;;;;15.30;13.80;;;25.00;99.90;;;;;;5098995;28;20055;-46
2021/06/05 08:07:03;;;;;;;14.77;13.35;;;25.30;99.90;;;;;;5098585;28;20370;-45
2021/06/05 08:09:29;;;;;;;14.98;12.63;;;25.60;98.90;;;;;;5097191;28;20039;-48
2021/06/05 08:11:55;;;;;;;13.88;12.50;;;26.00;98.00;;;;;;5099415;28;20020;-46
2021/06/05 08:14:21;;;;;;;18.67;11.77;;;26.20;96.90;;;;;;5098592;28;20045;-44
2021/06/05 08:16:46;;;;;;;14.65;11.60;;;27.30;95.10;;;;;;5091197;28;20099;-45
2021/06/05 08:19:13;;;;;;;13.18;11.77;;;28.10;93.30;;;;;;5097741;28;20028;-46
2021/06/05 08:21:41;;;;;;;11.88;10.65;;;29.20;88.60;;;;;;5108476;28;20027;-45
2021/06/05 08:24:07;;;;;;;13.55;11.68;;;29.90;81.70;;;;;;5107524;28;20023;-46
2021/06/05 08:26:32;;;;;;;10.88;9.88;;;31.00;75.30;;;;;;5096528;28;20482;-46
2021/06/05 08:28:58;;;;;;;13.38;10.30;;;31.40;72.00;;;;;;5096136;27;20051;-45
2021/06/05 08:31:23;;;;;;;14.05;11.27;;;32.00;68.40;;;;;;5098251;27;20032;-48
2021/06/05 08:33:49;;;;;;;11.15;9.45;;;32.50;67.10;;;;;;5096806;28;20015;-47
2021/06/05 08:36:19;;;;;;;10.70;9.70;;;32.70;64.40;;;;;;5095434;28;20103;-46
2021/06/05 08:38:44;;;;;;;12.00;9.38;;;33.00;62.30;;;;;;5094124;28;20016;-46
2021/06/05 08:41:17;;;;;;;10.18;8.57;;;33.70;60.60;;;;;;5094359;28;20027;-46
2021/06/05 08:43:50;;;;;;;9.35;8.45;;;34.50;58.90;;;;;;5095686;28;20355;-46
2021/06/05 08:46:28;;;;;;;9.82;8.95;;;34.90;58.20;;;;;;5092980;28;20052;-47
2021/06/05 08:48:57;;;;;;;11.02;8.43;;;35.20;56.10;;;;;;5095387;28;20103;-49
2021/06/05 08:51:45;;;;;;;12.30;8.98;;;35.50;54.00;;;;;;5094402;28;20026;-46
2021/06/05 08:54:36;;;;;;;8.95;8.23;;;35.60;54.50;;;;;;5098241;28;20031;-46
2021/06/05 08:57:29;;;;;;;11.10;8.63;;;35.40;53.90;;;;;;5096694;28;20024;-45
2021/06/05 08:59:57;;;;;;;11.73;8.98;;;35.50;53.30;;;;;;5102340;27;20031;-47
2021/06/05 09:02:27;;;;;;;9.55;8.55;;;35.00;53.10;;;;;;5096896;28;20031;-47
2021/06/05 09:04:54;;;;;;;10.45;8.70;;;35.10;52.60;;;;;;5096387;28;20264;-46
2021/06/05 09:07:21;;;;;;;9.73;8.73;;;34.40;53.90;;;;;;5098358;28;20031;-45
2021/06/05 09:09:49;;;;;;;9.45;8.13;;;33.90;55.00;;;;;;5096356;28;20457;-45
2021/06/05 09:12:16;;;;;;;10.05;8.85;;;33.30;54.80;;;;;;5103319;27;20477;-46
2021/06/05 09:14:43;;;;;;;9.48;8.57;;;32.50;57.00;;;;;;5106975;28;20020;-45
2021/06/05 09:17:38;;;;;;;13.75;8.57;;;32.10;57.70;;;;;;5100102;28;20024;-48
2021/06/05 09:20:23;;;;;;;12.27;9.10;;;31.80;58.30;;;;;;5097223;28;20042;-46
2021/06/05 09:22:49;;;;;;;11.10;10.13;;;31.30;58.80;;;;;;5095365;28;20027;-46
2021/06/05 09:25:44;;;;;;;10.25;9.30;;;30.80;59.10;;;;;;5094295;28;20027;-48
2021/06/05 09:28:18;;;;;;;10.50;9.52;;;30.30;61.80;;;;;;5072568;28;20533;-46
2021/06/05 09:30:45;;;;;;;11.27;9.85;;;29.60;63.10;;;;;;5073352;28;20076;-45
2021/06/05 09:33:14;;;;;;;10.23;9.30;;;29.00;64.70;;;;;;5095024;28;20082;-45
2021/06/05 09:35:46;;;;;;;15.00;9.40;;;28.70;65.40;;;;;;5094163;28;20043;-45
2021/06/05 09:38:26;;;;;;;10.82;9.73;;;28.60;66.00;;;;;;5096473;28;20146;-45
2021/06/05 09:41:11;;;;;;;12.35;9.70;;;28.30;66.90;;;;;;5094375;28;20028;-45
2021/06/05 09:43:37;;;;;;;12.32;10.63;;;28.00;68.60;;;;;;5097175;28;20038;-46
2021/06/05 09:46:12;;;;;;;11.38;10.30;;;28.10;68.40;;;;;;5095098;28;20063;-44
2021/06/05 09:48:44;;;;;;;13.18;10.40;;;27.80;67.90;;;;;;5097008;28;20020;-48
2021/06/05 09:51:34;;;;;;;13.15;10.95;;;27.40;69.40;;;;;;5094908;28;20016;-46
2021/06/05 09:54:12;;;;;;;11.95;10.40;;;27.50;70.40;;;;;;5094110;28;20031;-48
2021/06/05 09:56:44;;;;;;;14.07;9.75;;;27.60;69.60;;;;;;5100158;28;20030;-45
2021/06/05 09:59:28;;;;;;;10.27;9.27;;;27.60;70.20;;;;;;5108272;28;20023;-46
2021/06/05 10:02:05;;;;;;;11.55;10.13;;;27.60;69.80;;;;;;5112399;27;20020;-47
2021/06/05 10:04:33;;;;;;;12.80;9.93;;;27.80;68.70;;;;;;5088166;28;20027;-46
2021/06/05 10:07:00;;;;;;;12.38;10.52;;;27.80;69.10;;;;;;5094079;28;20533;-48
2021/06/05 10:09:25;;;;;;;10.63;9.43;;;27.90;70.00;;;;;;5097107;28;20078;-46
2021/06/05 10:11:58;;;;;;;12.82;10.00;;;28.30;68.70;;;;;;5097225;28;20481;-45
2021/06/05 10:14:39;;;;;;;14.80;9.43;;;28.30;68.40;;;;;;5094359;28;20020;-47
2021/06/05 10:17:19;;;;;;;11.57;10.38;;;28.40;67.80;;;;;;5098470;28;20058;-45
2021/06/05 10:19:58;;;;;;;16.13;9.80;;;28.20;67.20;;;;;;5087631;28;20074;-47
2021/06/05 10:22:25;;;;;;;9.68;8.65;;;28.30;67.60;;;;;;5091921;28;20544;-48
2021/06/05 10:25:00;;;;;;;10.38;8.32;;;28.50;67.70;;;;;;5094409;28;20111;-45
2021/06/05 10:27:32;;;;;;;8.63;7.68;;;28.50;67.60;;;;;;5099583;28;20059;-45
2021/06/05 10:30:08;;;;;;;9.02;8.15;;;28.70;66.70;;;;;;5096524;27;20039;-46
2021/06/05 10:32:40;;;;;;;9.30;8.32;;;28.60;67.70;;;;;;5114877;27;20023;-46
2021/06/05 10:35:17;;;;;;;9.38;8.48;;;28.50;68.70;;;;;;5099567;28;20024;-46
2021/06/05 10:37:43;;;;;;;8.52;7.68;;;28.50;67.80;;;;;;5099152;28;20027;-47
2021/06/05 10:40:18;;;;;;;12.65;8.65;;;28.40;69.60;;;;;;5096256;28;20687;-43
2021/06/05 10:42:49;;;;;;;8.75;7.85;;;28.50;67.50;;;;;;5106742;28;20034;-46
2021/06/05 10:45:25;;;;;;;10.77;7.93;;;28.80;68.30;;;;;;5110381;28;20039;-47
2021/06/05 10:47:54;;;;;;;8.27;7.22;;;29.80;66.90;;;;;;5110435;28;20024;-47
2021/06/05 10:50:25;;;;;;;9.48;7.43;;;30.70;63.90;;;;;;5107170;28;20556;-46
2021/06/05 10:53:05;;;;;;;9.93;7.68;;;31.00;64.00;;;;;;5095586;28;20028;-48
2021/06/05 10:55:44;;;;;;;8.27;7.47;;;31.10;60.60;;;;;;5103385;27;20038;-48
2021/06/05 10:58:12;;;;;;;7.88;7.18;;;30.50;62.50;;;;;;5097146;28;20024;-48
2021/06/05 11:00:41;;;;;;;7.90;7.20;;;29.50;62.70;;;;;;5096804;27;20047;-46
2021/06/05 11:03:08;;;;;;;8.38;7.50;;;29.60;64.40;;;;;;5093845;27;20092;-47
2021/06/05 11:05:34;;;;;;;11.93;9.25;;;29.40;65.40;;;;;;5086057;28;20032;-45
2021/06/05 11:08:09;;;;;;;8.75;7.85;;;28.60;67.10;;;;;;5062422;28;20177;-48
2021/06/05 11:10:53;;;;;;;9.07;8.18;;;28.40;67.40;;;;;;5086029;28;20080;-47
2021/06/05 11:13:37;;;;;;;11.68;8.15;;;28.30;69.30;;;;;;5077827;28;20390;-46
2021/06/05 11:16:12;;;;;;;9.38;7.30;;;28.40;70.90;;;;;;5096141;28;20015;-48
2021/06/05 11:18:42;;;;;;;9.43;7.88;;;28.30;69.80;;;;;;5103315;28;20092;-45
2021/06/05 11:21:20;;;;;;;;;;;28.30;70.20;;;;;;5105470;28;20428;-44
2021/06/05 11:23:58;;;;;;;11.38;8.77;;;28.20;71.70;;;;;;5105751;28;19938;-44
2021/06/05 11:26:43;;;;;;;10.88;9.32;;;28.10;72.40;;;;;;5105034;28;20031;-43
2021/06/05 11:29:21;;;;;;;9.95;9.02;;;27.90;71.80;;;;;;5094957;27;20094;-47
2021/06/05 11:31:51;;;;;;;15.00;10.13;;;27.70;72.70;;;;;;5104016;27;20022;-46
2021/06/05 11:34:28;;;;;;;20.52;11.15;;;27.30;77.40;;;;;;5130414;27;20496;-46
2021/06/05 11:36:58;;;;;;;12.00;7.05;;;26.70;85.40;;;;;;5090696;28;20028;-45
2021/06/05 11:39:23;;;;;;;15.02;5.90;;;26.00;89.90;;;;;;5103601;28;20024;-46
2021/06/05 11:41:53;;;;;;;9.93;5.47;;;25.10;92.40;;;;;;5091885;28;20085;-47
2021/06/05 11:44:39;;;;;;;14.60;6.82;;;24.20;99.90;;;;;;5097169;28;20484;-45
2021/06/05 11:47:21;;;;;;;11.30;6.95;;;23.40;99.90;;;;;;5099642;28;20031;-45
2021/06/05 11:50:07;;;;;;;17.52;9.30;;;22.90;99.90;;;;;;5099377;28;20031;-45
2021/06/05 11:52:42;;;;;;;12.80;9.13;;;22.70;99.90;;;;;;5098375;28;20024;-45
2021/06/05 11:55:15;;;;;;;10.35;9.20;;;22.60;99.90;;;;;;5101547;27;20019;-45
2021/06/05 11:58:02;;;;;;;10.75;8.25;;;22.40;99.90;;;;;;5100168;27;20027;-46
2021/06/05 12:00:36;;;;;;;11.13;8.38;;;22.10;99.90;;;;;;5103692;28;20040;-45
2021/06/05 12:03:09;;;;;;;8.95;7.60;;;22.00;99.90;;;;;;5103001;27;20472;-46
2021/06/05 12:05:41;;;;;;;10.45;9.07;;;21.80;99.90;;;;;;5099364;27;20028;-46
2021/06/05 12:08:26;;;;;;;10.93;9.00;;;21.70;99.90;;;;;;5094379;28;20169;-48
2021/06/05 12:10:54;;;;;;;11.95;9.95;;;21.60;99.90;;;;;;5097541;28;20024;-48
2021/06/05 12:13:23;;;;;;;13.73;10.57;;;21.60;99.90;;;;;;5096258;28;20035;-45
2021/06/05 12:15:50;;;;;;;18.85;12.68;;;21.60;99.90;;;;;;5102507;28;20020;-45
2021/06/05 12:18:26;;;;;;;16.77;13.20;;;21.40;99.90;;;;;;5093452;28;20024;-46
2021/06/05 12:20:58;;;;;;;14.05;12.10;;;21.20;99.90;;;;;;5093142;28;20066;-45
2021/06/05 12:23:24;;;;;;;13.32;11.93;;;21.00;99.90;;;;;;5096804;28;20392;-44
2021/06/05 12:25:50;;;;;;;10.82;9.73;;;21.00;99.90;;;;;;5098961;27;20032;-45
2021/06/05 12:28:27;;;;;;;12.40;11.20;;;20.80;99.90;;;;;;5093136;28;20024;-44
2021/06/05 12:30:54;;;;;;;16.40;12.60;;;20.80;99.90;;;;;;5095379;28;20061;-45
2021/06/05 12:33:30;;;;;;;13.77;12.23;;;20.80;99.90;;;;;;5088688;28;20019;-45
2021/06/05 12:35:56;;;;;;;14.88;12.70;;;20.70;99.90;;;;;;5092939;27;20023;-46
2021/06/05 12:38:40;;;;;;;16.55;12.43;;;20.70;99.90;;;;;;5097118;28;20381;-46
2021/06/05 12:41:09;;;;;;;20.92;14.15;;;20.60;99.90;;;;;;5097517;28;20078;-46
2021/06/05 12:43:37;;;;;;;30.40;15.80;;;20.50;99.90;;;;;;5096730;28;20073;-47